Detall de PIREP

Printer-friendly versionPDF version

[2010/10/14 08:06:00]
Flight IATA:CT0001
Pilot Number:041
Company ICAO:CAT
Aircraft Type:F28/A
PAX:79
Departing Airport: LEMH
Destination Airport: LEVC
Alternate Airport:LEAL
Online: VATSIM
Route:MJV3C A33 GATOS A33 TURIA A33 RIKOS1C
Flight Level:FL190
No Slew and time accel
No pause
Crash detect
Detect pilot in Cockpit between each 30 and 45 minutes
08:06 Zero fuel Weight: 52536 Lbs, Fuel Weight: 17138 Lbs
08:06 VATSIM:LEMH 140730Z 36007KT 330V030 9999 FEW030 19/15 Q1011
08:06 VATSIM:LEVC 140730Z 00000KT 9999 FEW030 17/15 Q1012 NOSIG
08:06 VOICE CATALONIAN
08:15 Parking Brakes off
08:24 Take-off
08:24 Take off Weight: 69073 Lbs
08:24 Wind: 000º @ 006 Knots Heading: 008º
08:24 POS N39º 52´ 12´´ E004º 13´ 12´´
08:24 Gear Up: 178 Knots
08:24 Flaps:1 at 178 Knots
08:25 Flaps:0 at 228 Knots
08:35 TOC
08:35 Fuel Weight: 15136 Lb
08:39 Wind:294º@013 Knots Heading: 275º Ground Speed: 376 Knots Altitude 19045 ft
08:53 TOD
08:53 Fuel Weight: 13656 Lb
08:54 Wind:329º@011 Knots Heading: 272º Ground Speed: 313 Knots Altitude 18405 ft
09:09 Wind:284º@003 Knots Heading: 270º Ground Speed: 227 Knots Altitude 3480 ft
09:12 Flaps:1 at 217 Knots
09:14 Flaps:2 at 203 Knots
09:14 Gear Down: 200 Knots
09:15 Flaps:3 at 179 Knots
09:16 Flaps:4 at 169 Knots
09:16 Flaps:5 at 169 Knots
09:17 TouchDown:Rate -95 ft/min Speed: 114 Knots
09:17 VATSIM:LEVC 140900Z 00000KT CAVOK 20/16 Q1012 NOSIG
09:17 Land
09:17 Wind:287º@002 Knots
09:17 Heading: 302º
09:17 Flight Duration: 00:53
09:17 Landing Weight: 65158 Lbs
09:17 POS N39º 29´ 23´´ W000º 28´ 58´´
09:20 Parking brakes on
09:20 Block to Block Duration: 01:05
09:20 Final Fuel: 12524 Lbls
09:20 Spent Fuel: 4614 Lbls
09:20 Flight Length: 265 NM
09:20 TOD Land Length: 97 NM

Exportar CSV

Powered by Drupal - Modified by Danger4k